Wetterdaten: Woche 13.02.17 - 19.02.17 (KW7)
Datum Zeit Temp. A. Feuchte A. Luftdruck Regen Wind Richtung Sonnenschein ET UV Solar Taupunkt Windchill Windben Empfang
13.02.2017 00:00 0,5 C 88 % 1030,4 hPa 0,0 l/m 11,7 km/h (2 Bft) O-NO 0,00 h 0,000 mm 0,0 UV-I 0 W/m -1,2 C -4,1 C 16,9 km/h (3 Bft) 97,23 %
13.02.2017 01:00 0,4 C 86 % 1030,2 hPa 0,0 l/m 15,2 km/h (3 Bft) O-NO 0,00 h 0,000 mm 0,0 UV-I 0 W/m -1,6 C -6,6 C 21,4 km/h (4 Bft) 96,75 %
13.02.2017 02:00 0,3 C 86 % 1030,1 hPa 0,0 l/m 14,8 km/h (3 Bft) O-NO 0,00 h 0,025 mm 0,0 UV-I 0 W/m -1,7 C -6,4 C 20,6 km/h (4 Bft) 97,10 %
13.02.2017 03:00 0,1 C 87 % 1030,1 hPa 0,0 l/m 16,5 km/h (3 Bft) O-NO 0,00 h 0,026 mm 0,0 UV-I 0 W/m -1,7 C -7,5 C 23,3 km/h (4 Bft) 97,61 %
13.02.2017 04:00 -0,2 C 88 % 1030,2 hPa 0,0 l/m 20,7 km/h (4 Bft) O-NO 0,00 h 0,025 mm 0,0 UV-I 0 W/m -2,0 C -10,1 C 28,4 km/h (4 Bft) 95,74 %
13.02.2017 05:00 -0,6 C 89 % 1030,5 hPa 0,0 l/m 24,7 km/h (4 Bft) O-NO 0,00 h 0,026 mm 0,0 UV-I 0 W/m -2,2 C -12,5 C 33,2 km/h (5 Bft) 98,04 %
13.02.2017 06:00 -0,7 C 89 % 1030,8 hPa 0,0 l/m 24,2 km/h (4 Bft) O-NO 0,00 h 0,025 mm 0,0 UV-I 0 W/m -2,3 C -12,3 C 34,8 km/h (5 Bft) 94,86 %
13.02.2017 07:00 -0,8 C 89 % 1031,1 hPa 0,0 l/m 25,4 km/h (4 Bft) O-NO 0,00 h 0,025 mm 0,0 UV-I 13 W/m -2,4 C -13,0 C 35,9 km/h (5 Bft) 96,85 %
13.02.2017 08:00 -0,9 C 89 % 1031,2 hPa 0,0 l/m 21,8 km/h (4 Bft) O-NO 0,00 h 0,026 mm 0,0 UV-I 48 W/m -2,4 C -11,5 C 31,6 km/h (5 Bft) 95,96 %
13.02.2017 09:00 -0,8 C 88 % 1031,2 hPa 0,0 l/m 21,9 km/h (4 Bft) O-NO 0,00 h 0,025 mm 0,0 UV-I 96 W/m -2,5 C -11,5 C 30,8 km/h (5 Bft) 97,84 %
13.02.2017 10:00 -0,7 C 87 % 1031,2 hPa 0,0 l/m 23,2 km/h (4 Bft) O-NO 0,10 h 0,051 mm 0,5 UV-I 175 W/m -2,6 C -11,9 C 32,4 km/h (5 Bft) 96,37 %
13.02.2017 11:00 0,4 C 83 % 1031,2 hPa 0,0 l/m 23,5 km/h (4 Bft) O-NO 0,87 h 0,076 mm 0,9 UV-I 432 W/m -2,2 C -10,5 C 32,4 km/h (5 Bft) 94,95 %
13.02.2017 12:00 1,7 C 79 % 1030,5 hPa 0,0 l/m 22,6 km/h (4 Bft) O-NO 1,00 h 0,178 mm 1,1 UV-I 488 W/m -1,6 C -8,5 C 30,5 km/h (5 Bft) 94,10 %
13.02.2017 13:00 2,6 C 76 % 1029,7 hPa 0,0 l/m 23,3 km/h (4 Bft) O-NO 1,00 h 0,203 mm 0,9 UV-I 451 W/m -1,2 C -7,5 C 32,3 km/h (5 Bft) 94,83 %
13.02.2017 14:00 3,2 C 75 % 1029,1 hPa 0,0 l/m 22,6 km/h (4 Bft) O-NO 1,00 h 0,203 mm 0,6 UV-I 355 W/m -0,8 C -6,5 C 31,7 km/h (5 Bft) 94,35 %
13.02.2017 15:00 3,3 C 76 % 1028,7 hPa 0,0 l/m 20,8 km/h (4 Bft) O-NO 1,00 h 0,178 mm 0,0 UV-I 221 W/m -0,5 C -5,7 C 28,7 km/h (4 Bft) 94,15 %
13.02.2017 16:00 2,9 C 77 % 1028,4 hPa 0,0 l/m 19,5 km/h (3 Bft) O-NO 1,00 h 0,127 mm 0,0 UV-I 87 W/m -0,7 C -5,6 C 27,4 km/h (4 Bft) 96,19 %
13.02.2017 17:00 2,2 C 78 % 1028,5 hPa 0,2 l/m 30,1 km/h (5 Bft) O-NO 0,23 h 0,076 mm 0,0 UV-I 12 W/m -1,2 C -10,2 C 41,1 km/h (6 Bft) 97,45 %
13.02.2017 18:00 1,6 C 79 % 1028,7 hPa 0,0 l/m 37,5 km/h (5 Bft) O-NO 0,00 h 0,051 mm 0,0 UV-I 0 W/m -1,6 C -13,0 C 51,7 km/h (7 Bft) 97,67 %
13.02.2017 19:00 1,0 C 81 % 1028,5 hPa 0,0 l/m 38,9 km/h (6 Bft) O-NO 0,00 h 0,051 mm 0,0 UV-I 0 W/m -1,8 C -14,1 C 53,4 km/h (7 Bft) 95,92 %
13.02.2017 20:00 0,5 C 83 % 1028,3 hPa 0,0 l/m 36,9 km/h (5 Bft) O-NO 0,00 h 0,051 mm 0,0 UV-I 0 W/m -2,0 C -14,4 C 49,4 km/h (6 Bft) 97,95 %
13.02.2017 21:00 0,2 C 83 % 1028,5 hPa 0,0 l/m 28,7 km/h (4 Bft) O-NO 0,00 h 0,051 mm 0,0 UV-I 0 W/m -2,3 C -12,6 C 40,1 km/h (6 Bft) 97,83 %
13.02.2017 22:00 0,0 C 83 % 1028,5 hPa 0,0 l/m 23,3 km/h (4 Bft) O-NO 0,00 h 0,025 mm 0,0 UV-I 0 W/m -2,6 C -11,0 C 31,9 km/h (5 Bft) 96,24 %
13.02.2017 23:00 -0,3 C 83 % 1028,6 hPa 0,0 l/m 19,4 km/h (3 Bft) NO 0,00 h 0,025 mm 0,0 UV-I 0 W/m -2,8 C -9,7 C 26,9 km/h (4 Bft) 97,99 %
14.02.2017 00:00 -0,2 C 83 % 1028,6 hPa 0,0 l/m 20,4 km/h (4 Bft) O-NO 0,00 h 0,000 mm 0,0 UV-I 0 W/m -2,8 C -10,1 C 28,1 km/h (4 Bft) 97,58 %
14.02.2017 01:00 -0,6 C 84 % 1028,8 hPa 0,0 l/m 18,8 km/h (3 Bft) O-NO 0,00 h 0,025 mm 0,0 UV-I 0 W/m -3,0 C -9,7 C 26,1 km/h (4 Bft) 97,31 %
14.02.2017 02:00 -1,0 C 85 % 1029,0 hPa 0,0 l/m 13,9 km/h (3 Bft) O-NO 0,00 h 0,026 mm 0,0 UV-I 0 W/m -3,2 C -7,4 C 19,4 km/h (3 Bft) 97,92 %
14.02.2017 03:00 -1,3 C 86 % 1029,0 hPa 0,0 l/m 13,5 km/h (3 Bft) O-NO 0,00 h 0,025 mm 0,0 UV-I 0 W/m -3,3 C -7,5 C 19,3 km/h (3 Bft) 97,54 %
14.02.2017 04:00 -1,3 C 86 % 1029,1 hPa 0,0 l/m 19,4 km/h (3 Bft) O-NO 0,00 h 0,026 mm 0,0 UV-I 0 W/m -3,3 C -10,9 C 26,8 km/h (4 Bft) 96,84 %
14.02.2017 05:00 -1,3 C 85 % 1029,3 hPa 0,0 l/m 22,4 km/h (4 Bft) O-NO 0,00 h 0,025 mm 0,0 UV-I 0 W/m -3,5 C -12,4 C 30,4 km/h (5 Bft) 97,78 %
14.02.2017 06:00 -1,6 C 86 % 1029,7 hPa 0,0 l/m 21,5 km/h (4 Bft) O-NO 0,00 h 0,025 mm 0,0 UV-I 3 W/m -3,6 C -12,3 C 29,5 km/h (5 Bft) 95,70 %
14.02.2017 07:00 -1,5 C 86 % 1030,5 hPa 0,0 l/m 23,7 km/h (4 Bft) O-NO 0,43 h 0,026 mm 0,0 UV-I 30 W/m -3,6 C -13,2 C 32,5 km/h (5 Bft) 97,33 %
14.02.2017 08:00 -1,1 C 85 % 1030,9 hPa 0,0 l/m 21,2 km/h (4 Bft) O-NO 1,00 h 0,025 mm 0,0 UV-I 161 W/m -3,4 C -11,5 C 29,2 km/h (5 Bft) 97,06 %
14.02.2017 09:00 -0,3 C 83 % 1031,4 hPa 0,0 l/m 19,2 km/h (3 Bft) O-NO 1,00 h 0,076 mm 0,6 UV-I 306 W/m -2,8 C -9,5 C 27,4 km/h (4 Bft) 95,48 %
14.02.2017 10:00 0,9 C 79 % 1031,6 hPa 0,0 l/m 16,7 km/h (3 Bft) O-NO 1,00 h 0,127 mm 1,0 UV-I 424 W/m -2,2 C -6,7 C 23,4 km/h (4 Bft) 94,50 %
14.02.2017 11:00 2,1 C 76 % 1031,7 hPa 0,0 l/m 13,6 km/h (3 Bft) NO 1,00 h 0,178 mm 1,3 UV-I 490 W/m -1,7 C -3,5 C 19,6 km/h (3 Bft) 94,90 %
14.02.2017 12:00 3,0 C 73 % 1031,7 hPa 0,0 l/m 14,7 km/h (3 Bft) O-NO 1,00 h 0,203 mm 1,4 UV-I 503 W/m -1,3 C -3,1 C 20,0 km/h (4 Bft) 96,81 %
14.02.2017 13:00 3,6 C 72 % 1032,0 hPa 0,0 l/m 16,1 km/h (3 Bft) O-NO 1,00 h 0,204 mm 1,2 UV-I 456 W/m -0,9 C -3,1 C 22,6 km/h (4 Bft) 96,77 %
14.02.2017 14:00 3,8 C 73 % 1032,3 hPa 0,0 l/m 16,7 km/h (3 Bft) O-NO 1,00 h 0,203 mm 0,8 UV-I 360 W/m -0,6 C -3,2 C 22,7 km/h (4 Bft) 97,39 %
14.02.2017 15:00 3,9 C 74 % 1032,5 hPa 0,0 l/m 14,4 km/h (3 Bft) O-NO 1,00 h 0,178 mm 0,5 UV-I 231 W/m -0,3 C -1,8 C 21,2 km/h (4 Bft) 95,93 %
14.02.2017 16:00 3,2 C 77 % 1032,5 hPa 0,0 l/m 14,7 km/h (3 Bft) O-NO 1,00 h 0,127 mm 0,0 UV-I 86 W/m -0,4 C -2,9 C 20,8 km/h (4 Bft) 98,07 %
14.02.2017 17:00 2,6 C 79 % 1032,8 hPa 0,0 l/m 15,9 km/h (3 Bft) O-NO 0,23 h 0,050 mm 0,0 UV-I 13 W/m -0,6 C -4,3 C 23,1 km/h (4 Bft) 96,61 %
14.02.2017 18:00 2,3 C 81 % 1033,1 hPa 0,0 l/m 14,6 km/h (3 Bft) O 0,00 h 0,026 mm 0,0 UV-I 0 W/m -0,6 C -3,9 C 21,8 km/h (4 Bft) 95,59 %
14.02.2017 19:00 2,3 C 81 % 1033,4 hPa 0,0 l/m 19,7 km/h (3 Bft) O 0,00 h 0,025 mm 0,0 UV-I 0 W/m -0,5 C -6,4 C 27,9 km/h (4 Bft) 94,62 %
14.02.2017 20:00 2,2 C 82 % 1033,6 hPa 0,0 l/m 21,9 km/h (4 Bft) O-NO 0,00 h 0,026 mm 0,0 UV-I 0 W/m -0,6 C -7,5 C 31,1 km/h (5 Bft) 93,86 %
14.02.2017 21:00 1,7 C 84 % 1033,7 hPa 0,0 l/m 21,4 km/h (4 Bft) O-NO 0,00 h 0,025 mm 0,0 UV-I 0 W/m -0,6 C -8,0 C 30,1 km/h (5 Bft) 97,32 %
14.02.2017 22:00 1,3 C 87 % 1033,8 hPa 0,0 l/m 16,4 km/h (3 Bft) O-NO 0,00 h 0,025 mm 0,0 UV-I 0 W/m -0,7 C -6,1 C 23,3 km/h (4 Bft) 96,06 %
14.02.2017 23:00 0,5 C 89 % 1034,0 hPa 0,0 l/m 7,3 km/h (2 Bft) O-NO 0,00 h 0,026 mm 0,0 UV-I 0 W/m -1,2 C -0,6 C 11,5 km/h (2 Bft) 96,76 %
15.02.2017 00:00 -0,8 C 91 % 1034,3 hPa 0,0 l/m 3,3 km/h (1 Bft) O-NO 0,00 h 0,000 mm 0,0 UV-I 0 W/m -2,1 C -0,9 C 5,7 km/h (1 Bft) 96,73 %
15.02.2017 01:00 -2,5 C 94 % 1034,5 hPa 0,0 l/m 1,8 km/h (1 Bft) S-SO 0,00 h 0,000 mm 0,0 UV-I 0 W/m -3,4 C -2,5 C 3,1 km/h (1 Bft) 96,75 %
15.02.2017 02:00 -3,0 C 95 % 1034,5 hPa 0,0 l/m 1,9 km/h (1 Bft) S-SO 0,00 h 0,000 mm 0,0 UV-I 0 W/m -3,8 C -3,0 C 3,9 km/h (1 Bft) 95,59 %
15.02.2017 03:00 -3,3 C 95 % 1034,6 hPa 0,0 l/m 2,0 km/h (1 Bft) S 0,00 h 0,000 mm 0,0 UV-I 0 W/m -4,0 C -3,3 C 3,6 km/h (1 Bft) 97,51 %
15.02.2017 04:00 -3,8 C 95 % 1034,9 hPa 0,0 l/m 1,3 km/h (1 Bft) S 0,00 h 0,000 mm 0,0 UV-I 0 W/m -4,4 C -3,8 C 2,3 km/h (1 Bft) 95,60 %
15.02.2017 05:00 -4,0 C 96 % 1035,4 hPa 0,0 l/m 1,5 km/h (1 Bft) S 0,00 h 0,000 mm 0,0 UV-I 0 W/m -4,6 C -4,0 C 3,0 km/h (1 Bft) 95,67 %
15.02.2017 06:00 -4,2 C 96 % 1035,7 hPa 0,0 l/m 0,9 km/h (0 Bft) S 0,00 h 0,000 mm 0,0 UV-I 4 W/m -4,7 C -4,2 C 2,2 km/h (1 Bft) 95,41 %
15.02.2017 07:00 -4,4 C 96 % 1036,3 hPa 0,0 l/m 1,3 km/h (1 Bft) S 0,10 h 0,000 mm 0,0 UV-I 25 W/m -5,0 C -4,4 C 2,2 km/h (1 Bft) 96,94 %
15.02.2017 08:00 -3,9 C 96 % 1036,6 hPa 0,0 l/m 2,2 km/h (1 Bft) S-SW 0,30 h 0,000 mm 0,0 UV-I 100 W/m -4,5 C -3,9 C 3,9 km/h (1 Bft) 98,17 %
15.02.2017 09:00 -3,1 C 97 % 1037,0 hPa 0,0 l/m 2,5 km/h (1 Bft) SW 0,30 h 0,025 mm 0,5 UV-I 171 W/m -3,5 C -3,1 C 4,5 km/h (1 Bft) 96,79 %
15.02.2017 10:00 -2,0 C 97 % 1037,1 hPa 0,0 l/m 1,9 km/h (1 Bft) SW 1,00 h 0,051 mm 0,8 UV-I 302 W/m -2,4 C -2,0 C 3,8 km/h (1 Bft) 98,50 %
15.02.2017 11:00 0,4 C 94 % 1036,9 hPa 0,0 l/m 1,6 km/h (1 Bft) SW 1,00 h 0,102 mm 1,3 UV-I 472 W/m -0,5 C 0,4 C 3,5 km/h (1 Bft) 97,11 %
15.02.2017 12:00 2,8 C 85 % 1036,3 hPa 0,0 l/m 0,9 km/h (0 Bft) SW 1,00 h 0,152 mm 1,4 UV-I 494 W/m 0,4 C 2,8 C 2,7 km/h (1 Bft) 95,99 %
15.02.2017 13:00 4,1 C 80 % 1035,7 hPa 0,0 l/m 1,0 km/h (0 Bft) SW 1,00 h 0,178 mm 1,2 UV-I 455 W/m 1,0 C 4,1 C 2,9 km/h (1 Bft) 96,54 %
15.02.2017 14:00 5,0 C 76 % 1035,3 hPa 0,0 l/m 3,4 km/h (1 Bft) SW 1,00 h 0,178 mm 0,8 UV-I 369 W/m 1,2 C 5,0 C 6,1 km/h (2 Bft) 95,78 %
15.02.2017 15:00 5,2 C 72 % 1035,1 hPa 0,0 l/m 2,9 km/h (1 Bft) W-SW 1,00 h 0,152 mm 0,5 UV-I 242 W/m 0,6 C 5,2 C 5,3 km/h (1 Bft) 97,24 %
15.02.2017 16:00 5,0 C 72 % 1034,8 hPa 0,0 l/m 1,0 km/h (0 Bft) W-SW 1,00 h 0,102 mm 0,0 UV-I 100 W/m 0,5 C 5,0 C 2,4 km/h (1 Bft) 98,33 %
15.02.2017 17:00 2,2 C 81 % 1034,8 hPa 0,0 l/m 1,3 km/h (1 Bft) W-SW 0,27 h 0,051 mm 0,0 UV-I 14 W/m -0,6 C 2,2 C 2,3 km/h (1 Bft) 97,86 %
15.02.2017 18:00 0,6 C 87 % 1035,0 hPa 0,0 l/m 0,8 km/h (0 Bft) W-SW 0,00 h 0,000 mm 0,0 UV-I 0 W/m -1,3 C 0,6 C 1,5 km/h (1 Bft) 95,89 %
15.02.2017 19:00 0,1 C 89 % 1035,2 hPa 0,0 l/m 3,0 km/h (1 Bft) W-SW 0,00 h 0,000 mm 0,0 UV-I 0 W/m -1,5 C 0,1 C 4,2 km/h (1 Bft) 95,84 %
15.02.2017 20:00 -0,4 C 91 % 1035,3 hPa 0,0 l/m 2,1 km/h (1 Bft) W-SW 0,00 h 0,000 mm 0,0 UV-I 0 W/m -1,6 C -0,4 C 3,6 km/h (1 Bft) 95,92 %
15.02.2017 21:00 -0,4 C 91 % 1035,5 hPa 0,0 l/m 2,3 km/h (1 Bft) W-SW 0,00 h 0,000 mm 0,0 UV-I 0 W/m -1,6 C -0,4 C 3,9 km/h (1 Bft) 97,64 %
15.02.2017 22:00 -0,8 C 92 % 1035,5 hPa 0,0 l/m 2,3 km/h (1 Bft) W-SW 0,00 h 0,000 mm 0,0 UV-I 0 W/m -1,9 C -0,8 C 3,6 km/h (1 Bft) 94,83 %
15.02.2017 23:00 -1,3 C 92 % 1035,6 hPa 0,0 l/m 0,4 km/h (0 Bft) W-SW 0,00 h 0,000 mm 0,0 UV-I 0 W/m -2,3 C -1,3 C 1,1 km/h (0 Bft) 97,83 %
16.02.2017 00:00 -2,0 C 94 % 1035,8 hPa 0,0 l/m 1,3 km/h (1 Bft) W-SW 0,00 h 0,000 mm 0,0 UV-I 0 W/m -2,9 C -2,0 C 1,9 km/h (1 Bft) 96,19 %
16.02.2017 01:00 -1,9 C 94 % 1035,5 hPa 0,0 l/m 4,1 km/h (1 Bft) W-SW 0,00 h 0,000 mm 0,0 UV-I 0 W/m -2,8 C -1,9 C 5,5 km/h (1 Bft) 97,47 %
16.02.2017 02:00 -1,8 C 93 % 1035,4 hPa 0,0 l/m 2,4 km/h (1 Bft) W-SW 0,00 h 0,000 mm 0,0 UV-I 0 W/m -2,8 C -1,8 C 3,7 km/h (1 Bft) 97,64 %
16.02.2017 03:00 -2,0 C 93 % 1035,1 hPa 0,0 l/m 0,3 km/h (0 Bft) W-SW 0,00 h 0,000 mm 0,0 UV-I 0 W/m -3,0 C -2,0 C 1,3 km/h (1 Bft) 95,40 %
16.02.2017 04:00 -2,6 C 94 % 1035,0 hPa 0,0 l/m 1,8 km/h (1 Bft) W-SW 0,00 h 0,000 mm 0,0 UV-I 0 W/m -3,4 C -2,6 C 3,0 km/h (1 Bft) 98,03 %
16.02.2017 05:00 -2,8 C 94 % 1035,0 hPa 0,0 l/m 2,1 km/h (1 Bft) W-SW 0,00 h 0,000 mm 0,0 UV-I 0 W/m -3,5 C -2,8 C 3,1 km/h (1 Bft) 96,11 %
16.02.2017 06:00 -2,9 C 95 % 1034,8 hPa 0,0 l/m 0,8 km/h (0 Bft) W-SW 0,00 h 0,000 mm 0,0 UV-I 4 W/m -3,7 C -2,9 C 1,8 km/h (1 Bft) 96,40 %
16.02.2017 07:00 -3,1 C 95 % 1034,9 hPa 0,0 l/m 0,7 km/h (0 Bft) W-SW 0,47 h 0,000 mm 0,0 UV-I 35 W/m -3,8 C -3,1 C 1,6 km/h (1 Bft) 95,51 %
16.02.2017 08:00 -1,7 C 94 % 1035,0 hPa 0,0 l/m 0,9 km/h (0 Bft) W-SW 1,00 h 0,000 mm 0,0 UV-I 159 W/m -2,5 C -1,7 C 2,1 km/h (1 Bft) 97,08 %
16.02.2017 09:00 0,6 C 89 % 1034,6 hPa 0,2 l/m 1,5 km/h (1 Bft) W-SW 1,00 h 0,051 mm 0,6 UV-I 294 W/m -1,0 C 0,6 C 3,5 km/h (1 Bft) 96,85 %
16.02.2017 10:00 3,3 C 80 % 1034,2 hPa 0,0 l/m 2,9 km/h (1 Bft) W-SW 1,00 h 0,101 mm 0,9 UV-I 419 W/m 0,2 C 3,3 C 4,6 km/h (1 Bft) 97,53 %
16.02.2017 11:00 5,1 C 74 % 1033,8 hPa 0,0 l/m 1,0 km/h (0 Bft) W-SW 1,00 h 0,153 mm 1,3 UV-I 490 W/m 0,9 C 5,1 C 2,4 km/h (1 Bft) 96,62 %
16.02.2017 12:00 6,1 C 73 % 1033,0 hPa 0,0 l/m 1,3 km/h (1 Bft) N-NW 1,00 h 0,203 mm 1,3 UV-I 497 W/m 1,7 C 6,1 C 3,7 km/h (1 Bft) 97,13 %
16.02.2017 13:00 7,3 C 67 % 1032,0 hPa 0,0 l/m 1,1 km/h (1 Bft) N-NW 1,00 h 0,203 mm 1,1 UV-I 457 W/m 1,7 C 7,3 C 3,3 km/h (1 Bft) 96,69 %
16.02.2017 14:00 8,4 C 64 % 1031,2 hPa 0,0 l/m 0,9 km/h (0 Bft) NW 1,00 h 0,203 mm 0,8 UV-I 369 W/m 2,0 C 8,4 C 2,6 km/h (1 Bft) 97,64 %
16.02.2017 15:00 8,6 C 64 % 1030,5 hPa 0,0 l/m 1,6 km/h (1 Bft) N-NW 1,00 h 0,178 mm 0,5 UV-I 238 W/m 2,2 C 8,6 C 3,1 km/h (1 Bft) 98,63 %
16.02.2017 16:00 7,3 C 69 % 1030,0 hPa 0,0 l/m 1,3 km/h (1 Bft) N-NW 0,63 h 0,102 mm 0,0 UV-I 81 W/m 2,0 C 7,3 C 2,5 km/h (1 Bft) 94,18 %
16.02.2017 17:00 4,7 C 78 % 1029,8 hPa 0,0 l/m 1,0 km/h (0 Bft) N-NW 0,30 h 0,051 mm 0,0 UV-I 17 W/m 1,3 C 4,7 C 2,0 km/h (1 Bft) 94,55 %
16.02.2017 18:00 3,5 C 82 % 1029,7 hPa 0,0 l/m 2,6 km/h (1 Bft) W-NW 0,00 h 0,000 mm 0,0 UV-I 0 W/m 0,7 C 3,5 C 3,9 km/h (1 Bft) 95,39 %
16.02.2017 19:00 2,6 C 85 % 1029,5 hPa 0,0 l/m 3,5 km/h (1 Bft) S-SW 0,00 h 0,000 mm 0,0 UV-I 0 W/m 0,3 C 2,6 C 5,3 km/h (1 Bft) 95,83 %
16.02.2017 20:00 2,4 C 84 % 1029,1 hPa 0,0 l/m 4,8 km/h (1 Bft) S-SW 0,00 h 0,000 mm 0,0 UV-I 0 W/m -0,0 C 2,3 C 7,1 km/h (2 Bft) 96,26 %
16.02.2017 21:00 1,3 C 87 % 1028,9 hPa 0,0 l/m 3,2 km/h (1 Bft) S 0,00 h 0,000 mm 0,0 UV-I 0 W/m -0,7 C 1,3 C 5,0 km/h (1 Bft) 97,06 %
16.02.2017 22:00 0,9 C 87 % 1028,5 hPa 0,0 l/m 3,2 km/h (1 Bft) S 0,00 h 0,000 mm 0,0 UV-I 0 W/m -1,0 C 0,9 C 5,1 km/h (1 Bft) 96,68 %
16.02.2017 23:00 0,8 C 87 % 1027,9 hPa 0,0 l/m 2,8 km/h (1 Bft) S 0,00 h 0,000 mm 0,0 UV-I 0 W/m -1,1 C 0,8 C 4,5 km/h (1 Bft) 96,97 %
17.02.2017 00:00 -1,0 C 91 % 1027,5 hPa 0,0 l/m 2,5 km/h (1 Bft) S 0,00 h 0,000 mm 0,0 UV-I 0 W/m -2,2 C -1,0 C 4,0 km/h (1 Bft) 97,08 %
17.02.2017 01:00 -1,1 C 93 % 1026,9 hPa 0,0 l/m 1,7 km/h (1 Bft) S 0,00 h 0,000 mm 0,0 UV-I 0 W/m -2,2 C -1,1 C 3,1 km/h (1 Bft) 97,21 %
17.02.2017 02:00 -1,1 C 92 % 1026,3 hPa 0,0 l/m 1,4 km/h (1 Bft) S-SO 0,00 h 0,000 mm 0,0 UV-I 0 W/m -2,2 C -1,1 C 2,8 km/h (1 Bft) 96,80 %
17.02.2017 03:00 -1,4 C 93 % 1025,6 hPa 0,0 l/m 2,4 km/h (1 Bft) S-SO 0,00 h 0,000 mm 0,0 UV-I 0 W/m -2,4 C -1,4 C 5,0 km/h (1 Bft) 96,88 %
17.02.2017 04:00 -0,8 C 93 % 1025,1 hPa 0,0 l/m 0,5 km/h (0 Bft) S-SO 0,00 h 0,000 mm 0,0 UV-I 0 W/m -1,8 C -0,8 C 1,5 km/h (1 Bft) 97,19 %
17.02.2017 05:00 -0,8 C 93 % 1024,2 hPa 0,0 l/m 0,6 km/h (0 Bft) S-SO 0,00 h 0,000 mm 0,0 UV-I 0 W/m -1,7 C -0,8 C 1,7 km/h (1 Bft) 96,82 %
17.02.2017 06:00 -0,8 C 94 % 1023,8 hPa 0,0 l/m 0,5 km/h (0 Bft) S-SO 0,00 h 0,000 mm 0,0 UV-I 0 W/m -1,6 C -0,8 C 1,7 km/h (1 Bft) 97,69 %
17.02.2017 07:00 0,1 C 93 % 1024,2 hPa 0,0 l/m 4,8 km/h (1 Bft) S-SW 0,00 h 0,000 mm 0,0 UV-I 14 W/m -1,0 C -0,2 C 7,9 km/h (2 Bft) 95,21 %
17.02.2017 08:00 1,6 C 92 % 1024,9 hPa 0,0 l/m 11,5 km/h (2 Bft) W-SW 0,00 h 0,000 mm 0,0 UV-I 21 W/m 0,5 C -2,7 C 16,6 km/h (3 Bft) 96,21 %
17.02.2017 09:00 2,8 C 94 % 1025,2 hPa 0,4 l/m 12,2 km/h (2 Bft) W-SW 0,00 h 0,025 mm 0,0 UV-I 67 W/m 1,9 C -1,8 C 18,2 km/h (3 Bft) 97,71 %
17.02.2017 10:00 3,2 C 95 % 1025,2 hPa 0,6 l/m 8,8 km/h (2 Bft) W-SW 0,00 h 0,026 mm 0,0 UV-I 93 W/m 2,4 C 1,0 C 12,7 km/h (3 Bft) 97,18 %
17.02.2017 11:00 3,5 C 96 % 1025,0 hPa 0,8 l/m 10,9 km/h (2 Bft) SW 0,00 h 0,025 mm 0,5 UV-I 144 W/m 2,9 C -0,1 C 15,8 km/h (3 Bft) 97,47 %
17.02.2017 12:00 4,0 C 96 % 1024,4 hPa 0,4 l/m 8,8 km/h (2 Bft) SW 0,00 h 0,051 mm 0,5 UV-I 149 W/m 3,4 C 2,0 C 13,9 km/h (3 Bft) 97,27 %
17.02.2017 13:00 4,0 C 96 % 1024,2 hPa 1,2 l/m 10,8 km/h (2 Bft) W-SW 0,00 h 0,051 mm 0,0 UV-I 61 W/m 3,4 C 0,7 C 16,5 km/h (3 Bft) 97,05 %
17.02.2017 14:00 3,5 C 95 % 1024,4 hPa 0,6 l/m 11,3 km/h (2 Bft) W-SW 0,00 h 0,025 mm 0,0 UV-I 64 W/m 2,8 C -0,4 C 16,4 km/h (3 Bft) 96,40 %
17.02.2017 15:00 3,2 C 95 % 1024,8 hPa 0,0 l/m 11,4 km/h (2 Bft) SW 0,00 h 0,026 mm 0,0 UV-I 50 W/m 2,5 C -0,8 C 17,6 km/h (3 Bft) 94,14 %
17.02.2017 16:00 2,9 C 95 % 1024,9 hPa 0,4 l/m 13,0 km/h (3 Bft) W-SW 0,00 h 0,025 mm 0,0 UV-I 22 W/m 2,1 C -2,3 C 20,2 km/h (4 Bft) 94,74 %
17.02.2017 17:00 2,5 C 95 % 1025,1 hPa 0,0 l/m 13,5 km/h (3 Bft) SW 0,00 h 0,025 mm 0,0 UV-I 8 W/m 1,8 C -2,9 C 21,2 km/h (4 Bft) 98,85 %
17.02.2017 18:00 2,2 C 95 % 1025,6 hPa 0,0 l/m 10,9 km/h (2 Bft) SW 0,00 h 0,000 mm 0,0 UV-I 0 W/m 1,5 C -1,6 C 16,8 km/h (3 Bft) 96,39 %
17.02.2017 19:00 2,1 C 94 % 1025,5 hPa 0,0 l/m 10,4 km/h (2 Bft) SW 0,00 h 0,000 mm 0,0 UV-I 0 W/m 1,3 C -1,3 C 16,3 km/h (3 Bft) 95,77 %
17.02.2017 20:00 1,7 C 95 % 1025,9 hPa 0,0 l/m 9,5 km/h (2 Bft) W-SW 0,00 h 0,000 mm 0,0 UV-I 0 W/m 1,0 C -1,1 C 14,1 km/h (3 Bft) 95,92 %
17.02.2017 21:00 2,0 C 95 % 1026,0 hPa 0,0 l/m 8,0 km/h (2 Bft) SW 0,00 h 0,000 mm 0,0 UV-I 0 W/m 1,3 C 0,5 C 12,3 km/h (3 Bft) 98,40 %
17.02.2017 22:00 2,5 C 94 % 1025,9 hPa 0,0 l/m 8,9 km/h (2 Bft) W-SW 0,00 h 0,000 mm 0,0 UV-I 0 W/m 1,6 C 0,2 C 13,7 km/h (3 Bft) 95,74 %
17.02.2017 23:00 2,4 C 95 % 1025,7 hPa 1,0 l/m 8,2 km/h (2 Bft) W 0,00 h 0,000 mm 0,0 UV-I 0 W/m 1,7 C 0,5 C 12,7 km/h (3 Bft) 96,71 %
18.02.2017 00:00 2,7 C 95 % 1025,6 hPa 0,0 l/m 12,2 km/h (2 Bft) W-SW 0,00 h 0,000 mm 0,0 UV-I 0 W/m 2,0 C -2,0 C 17,8 km/h (3 Bft) 92,67 %
18.02.2017 01:00 2,3 C 95 % 1025,5 hPa 0,2 l/m 10,6 km/h (2 Bft) W-SW 0,00 h 0,000 mm 0,0 UV-I 0 W/m 1,7 C -1,2 C 16,4 km/h (3 Bft) 98,69 %
18.02.2017 02:00 2,3 C 96 % 1025,4 hPa 0,0 l/m 11,5 km/h (2 Bft) SW 0,00 h 0,000 mm 0,0 UV-I 0 W/m 1,6 C -2,0 C 16,4 km/h (3 Bft) 96,29 %
18.02.2017 03:00 2,3 C 96 % 1025,1 hPa 0,0 l/m 13,4 km/h (3 Bft) SW 0,00 h 0,000 mm 0,0 UV-I 0 W/m 1,7 C -3,2 C 19,2 km/h (3 Bft) 96,39 %
18.02.2017 04:00 2,3 C 95 % 1025,2 hPa 0,0 l/m 8,9 km/h (2 Bft) SW 0,00 h 0,000 mm 0,0 UV-I 0 W/m 1,6 C -0,0 C 14,2 km/h (3 Bft) 97,78 %
18.02.2017 05:00 2,2 C 95 % 1025,4 hPa 0,0 l/m 10,5 km/h (2 Bft) W-SW 0,00 h 0,000 mm 0,0 UV-I 0 W/m 1,5 C -1,2 C 15,5 km/h (3 Bft) 97,38 %
18.02.2017 06:00 2,2 C 95 % 1025,7 hPa 0,4 l/m 7,7 km/h (2 Bft) SW 0,00 h 0,000 mm 0,0 UV-I 0 W/m 1,5 C 0,9 C 12,1 km/h (2 Bft) 96,11 %
18.02.2017 07:00 2,0 C 96 % 1026,0 hPa 0,0 l/m 9,7 km/h (2 Bft) SW 0,00 h 0,000 mm 0,0 UV-I 8 W/m 1,4 C -0,9 C 14,9 km/h (3 Bft) 95,91 %
18.02.2017 08:00 2,4 C 97 % 1026,3 hPa 0,0 l/m 7,7 km/h (2 Bft) W-SW 0,00 h 0,000 mm 0,0 UV-I 34 W/m 1,9 C 0,9 C 11,5 km/h (2 Bft) 97,59 %
18.02.2017 09:00 2,8 C 96 % 1026,5 hPa 0,0 l/m 8,1 km/h (2 Bft) W-SW 0,00 h 0,025 mm 0,0 UV-I 55 W/m 2,3 C 1,3 C 12,3 km/h (3 Bft) 96,52 %
18.02.2017 10:00 3,3 C 96 % 1026,5 hPa 0,0 l/m 7,6 km/h (2 Bft) W-SW 0,00 h 0,026 mm 0,0 UV-I 72 W/m 2,7 C 2,1 C 12,1 km/h (2 Bft) 96,06 %
18.02.2017 11:00 3,8 C 95 % 1026,7 hPa 0,0 l/m 7,3 km/h (2 Bft) SW 0,00 h 0,025 mm 0,0 UV-I 81 W/m 3,1 C 2,8 C 11,4 km/h (2 Bft) 93,71 %
18.02.2017 12:00 4,3 C 95 % 1026,6 hPa 0,0 l/m 7,7 km/h (2 Bft) W-SW 0,00 h 0,026 mm 0,4 UV-I 115 W/m 3,5 C 3,1 C 12,5 km/h (3 Bft) 98,26 %
18.02.2017 13:00 5,0 C 92 % 1026,1 hPa 0,0 l/m 8,7 km/h (2 Bft) W 0,10 h 0,050 mm 0,7 UV-I 195 W/m 3,8 C 3,1 C 14,2 km/h (3 Bft) 95,10 %
18.02.2017 14:00 5,3 C 91 % 1025,8 hPa 0,0 l/m 9,2 km/h (2 Bft) SW 0,00 h 0,077 mm 0,5 UV-I 162 W/m 3,9 C 3,0 C 14,8 km/h (3 Bft) 96,09 %
18.02.2017 15:00 5,0 C 91 % 1025,9 hPa 0,0 l/m 5,3 km/h (1 Bft) W-SW 0,00 h 0,076 mm 0,0 UV-I 43 W/m 3,7 C 4,9 C 7,9 km/h (2 Bft) 95,36 %
18.02.2017 16:00 4,5 C 92 % 1026,0 hPa 0,0 l/m 4,4 km/h (1 Bft) W-SW 0,00 h 0,025 mm 0,0 UV-I 26 W/m 3,3 C 4,5 C 6,5 km/h (2 Bft) 98,23 %
18.02.2017 17:00 3,9 C 93 % 1026,2 hPa 0,0 l/m 4,4 km/h (1 Bft) SW 0,03 h 0,026 mm 0,0 UV-I 10 W/m 2,8 C 3,9 C 6,7 km/h (2 Bft) 94,60 %
18.02.2017 18:00 3,2 C 94 % 1026,5 hPa 0,0 l/m 3,4 km/h (1 Bft) W-SW 0,00 h 0,000 mm 0,0 UV-I 0 W/m 2,4 C 3,2 C 5,4 km/h (1 Bft) 96,86 %
18.02.2017 19:00 2,8 C 95 % 1026,6 hPa 0,0 l/m 3,1 km/h (1 Bft) SW 0,00 h 0,000 mm 0,0 UV-I 0 W/m 2,1 C 2,8 C 5,1 km/h (1 Bft) 94,48 %
18.02.2017 20:00 2,8 C 95 % 1026,7 hPa 0,0 l/m 4,4 km/h (1 Bft) SW 0,00 h 0,000 mm 0,0 UV-I 0 W/m 2,0 C 2,8 C 6,1 km/h (2 Bft) 97,04 %
18.02.2017 21:00 2,7 C 94 % 1026,6 hPa 0,0 l/m 3,5 km/h (1 Bft) SW 0,00 h 0,000 mm 0,0 UV-I 0 W/m 1,9 C 2,7 C 5,7 km/h (1 Bft) 95,64 %
18.02.2017 22:00 2,2 C 95 % 1026,3 hPa 0,0 l/m 2,5 km/h (1 Bft) SW 0,00 h 0,000 mm 0,0 UV-I 0 W/m 1,5 C 2,2 C 4,1 km/h (1 Bft) 95,39 %
18.02.2017 23:00 1,8 C 95 % 1026,3 hPa 0,0 l/m 1,9 km/h (1 Bft) SW 0,00 h 0,000 mm 0,0 UV-I 0 W/m 1,1 C 1,8 C 3,1 km/h (1 Bft) 97,43 %
19.02.2017 00:00 1,2 C 97 % 1026,1 hPa 0,0 l/m 1,5 km/h (1 Bft) SW 0,00 h 0,000 mm 0,0 UV-I 0 W/m 0,7 C 1,2 C 2,8 km/h (1 Bft) 97,24 %
19.02.2017 01:00 1,1 C 97 % 1025,7 hPa 0,0 l/m 1,4 km/h (1 Bft) SW 0,00 h 0,000 mm 0,0 UV-I 0 W/m 0,7 C 1,1 C 2,8 km/h (1 Bft) 96,29 %
19.02.2017 02:00 0,5 C 97 % 1025,5 hPa 0,0 l/m 1,5 km/h (1 Bft) SW 0,00 h 0,000 mm 0,0 UV-I 0 W/m 0,1 C 0,5 C 2,8 km/h (1 Bft) 97,28 %
19.02.2017 03:00 0,7 C 97 % 1025,4 hPa 0,0 l/m 0,3 km/h (0 Bft) SW 0,00 h 0,000 mm 0,0 UV-I 0 W/m 0,3 C 0,7 C 1,1 km/h (1 Bft) 96,31 %
19.02.2017 04:00 0,5 C 97 % 1025,4 hPa 0,0 l/m 1,2 km/h (1 Bft) SW 0,00 h 0,000 mm 0,0 UV-I 0 W/m 0,1 C 0,5 C 2,6 km/h (1 Bft) 96,34 %
19.02.2017 05:00 0,0 C 98 % 1025,3 hPa 0,0 l/m 2,0 km/h (1 Bft) SW 0,00 h 0,000 mm 0,0 UV-I 0 W/m -0,3 C 0,0 C 3,4 km/h (1 Bft) 97,01 %
19.02.2017 06:00 -0,6 C 98 % 1025,2 hPa 0,0 l/m 5,0 km/h (1 Bft) SW 0,00 h 0,000 mm 0,0 UV-I 5 W/m -0,9 C -0,6 C 7,5 km/h (2 Bft) 96,62 %
19.02.2017 07:00 -0,8 C 98 % 1025,3 hPa 0,0 l/m 6,5 km/h (2 Bft) S-SW 0,03 h 0,000 mm 0,0 UV-I 25 W/m -1,1 C -1,5 C 10,0 km/h (2 Bft) 96,10 %
19.02.2017 08:00 -0,8 C 98 % 1025,4 hPa 0,0 l/m 5,1 km/h (1 Bft) S-SW 0,13 h 0,000 mm 0,0 UV-I 102 W/m -1,0 C -0,9 C 8,1 km/h (2 Bft) 95,12 %
19.02.2017 09:00 -0,7 C 98 % 1025,5 hPa 0,0 l/m 2,2 km/h (1 Bft) SW 0,20 h 0,025 mm 0,5 UV-I 164 W/m -1,0 C -0,7 C 4,6 km/h (1 Bft) 95,32 %
19.02.2017 10:00 0,1 C 98 % 1025,4 hPa 0,0 l/m 2,1 km/h (1 Bft) S-SW 0,70 h 0,051 mm 0,7 UV-I 273 W/m -0,2 C 0,1 C 4,6 km/h (1 Bft) 95,34 %
19.02.2017 11:00 1,2 C 98 % 1025,3 hPa 0,0 l/m 2,1 km/h (1 Bft) SW 0,63 h 0,102 mm 0,9 UV-I 295 W/m 0,9 C 1,2 C 4,6 km/h (1 Bft) 97,38 %
19.02.2017 12:00 2,2 C 95 % 1024,8 hPa 0,0 l/m 2,1 km/h (1 Bft) W-NW 0,50 h 0,101 mm 1,0 UV-I 334 W/m 1,5 C 2,2 C 4,6 km/h (1 Bft) 96,61 %
19.02.2017 13:00 3,5 C 90 % 1024,2 hPa 0,0 l/m 2,6 km/h (1 Bft) W 0,77 h 0,127 mm 1,2 UV-I 396 W/m 1,9 C 3,5 C 5,3 km/h (1 Bft) 98,49 %
19.02.2017 14:00 4,1 C 87 % 1023,3 hPa 0,0 l/m 2,0 km/h (1 Bft) NW 1,00 h 0,153 mm 0,9 UV-I 387 W/m 2,2 C 4,1 C 4,5 km/h (1 Bft) 97,53 %
19.02.2017 15:00 3,9 C 88 % 1022,9 hPa 0,0 l/m 2,0 km/h (1 Bft) NW 1,00 h 0,152 mm 0,5 UV-I 248 W/m 2,2 C 3,9 C 4,7 km/h (1 Bft) 97,23 %
19.02.2017 16:00 3,7 C 89 % 1022,3 hPa 0,0 l/m 0,7 km/h (0 Bft) NW 1,00 h 0,102 mm 0,0 UV-I 111 W/m 2,0 C 3,7 C 2,1 km/h (1 Bft) 96,11 %
19.02.2017 17:00 2,4 C 92 % 1021,9 hPa 0,0 l/m 1,1 km/h (1 Bft) NW 0,27 h 0,051 mm 0,0 UV-I 16 W/m 1,3 C 2,4 C 1,8 km/h (1 Bft) 97,02 %
19.02.2017 18:00 0,9 C 95 % 1021,9 hPa 0,0 l/m 1,2 km/h (1 Bft) NW 0,00 h 0,000 mm 0,0 UV-I 0 W/m 0,3 C 0,9 C 2,0 km/h (1 Bft) 94,03 %
19.02.2017 19:00 0,7 C 96 % 1022,0 hPa 0,0 l/m 1,4 km/h (1 Bft) NW 0,00 h 0,000 mm 0,0 UV-I 0 W/m 0,2 C 0,7 C 2,9 km/h (1 Bft) 96,88 %
19.02.2017 20:00 0,9 C 97 % 1022,3 hPa 0,0 l/m 4,4 km/h (1 Bft) SW 0,00 h 0,000 mm 0,0 UV-I 0 W/m 0,4 C 0,8 C 6,3 km/h (2 Bft) 95,58 %
19.02.2017 21:00 1,2 C 96 % 1022,7 hPa 0,0 l/m 7,8 km/h (2 Bft) W-SW 0,00 h 0,000 mm 0,0 UV-I 0 W/m 0,6 C -0,2 C 12,0 km/h (2 Bft) 97,75 %
19.02.2017 22:00 0,8 C 96 % 1023,0 hPa 0,0 l/m 4,0 km/h (1 Bft) W-SW 0,00 h 0,000 mm 0,0 UV-I 0 W/m 0,3 C 0,8 C 5,9 km/h (2 Bft) 96,73 %
19.02.2017 23:00 0,5 C 97 % 1023,3 hPa 0,0 l/m 2,3 km/h (1 Bft) SW 0,00 h 0,000 mm 0,0 UV-I 0 W/m 0,0 C 0,5 C 4,1 km/h (1 Bft) 97,02 %
Min-Datum _ 15.02.17 16.02.17 19.02.17 - 15.02.17 - - - - - 15.02.17 13.02.17 15.02.17 18.02.17
_ Min-Zeit 07:26 14:46 17:08 - 00:56 - - - - - 07:26 19:54 00:58 00:02
Minimum _ -4,7 C 62 % 1021,8 hPa - 0,0 km/h (0 Bft) - - - - - -5,4 C -15,9 C 0,0 km/h (0 Bft) 5,56 %
Max-Datum _ 16.02.17 15.02.17 15.02.17 17.02.17 13.02.17 - 14.02.17 14.02.17 19.02.17 19.02.17 18.02.17 16.02.17 13.02.17 13.02.17
_ Max-Zeit 14:44 10:44 10:50 13:14 19:46 - 16:16 13:00 13:08 13:06 13:50 14:54 19:46 00:00
Maximum _ 8,8 C 98 % 1037,3 hPa 1,2 l/m 46,5 km/h
O-NO (6 Bft)
- 0,10 h 0,204 mm 1,5 UV-I 660 W/m 4,1 C 8,8 C 64,4 km/h
O-NO (8 Bft)
100,00 %
Durchschnitt _ 1,2 C 89 % 1029,2 hPa #6,4 l/m 8,9 km/h (2 Bft) W-SW #39:36 h #6,986 mm 0,8 UV-I 186 W/m -0,4 C -2,0 C 13,1 km/h (3 Bft) 96,52 %